sensor_id;sensor_type;location;lat;lon;timestamp;pressure;altitude;pressure_sealevel;temperature;humidity
9460;BME280;4768;42.664;23.240;2023-03-01T00:01:10;-9543.72;;;4.70;100.00
9460;BME280;4768;42.664;23.240;2023-03-01T00:03:37;-9543.44;;;4.69;100.00
9460;BME280;4768;42.664;23.240;2023-03-01T00:06:05;-9543.59;;;4.69;100.00
9460;BME280;4768;42.664;23.240;2023-03-01T00:08:32;-9542.88;;;4.67;100.00
9460;BME280;4768;42.664;23.240;2023-03-01T00:11:01;-9542.31;;;4.65;100.00
9460;BME280;4768;42.664;23.240;2023-03-01T00:13:28;-9542.19;;;4.64;100.00
9460;BME280;4768;42.664;23.240;2023-03-01T00:15:56;-9541.91;;;4.63;100.00
9460;BME280;4768;42.664;23.240;2023-03-01T00:18:23;-9542.75;;;4.66;100.00
9460;BME280;4768;42.664;23.240;2023-03-01T00:20:51;-9541.47;;;4.62;100.00
9460;BME280;4768;42.664;23.240;2023-03-01T00:23:18;-9541.91;;;4.63;100.00
9460;BME280;4768;42.664;23.240;2023-03-01T00:25:45;-9540.75;;;4.59;100.00
9460;BME280;4768;42.664;23.240;2023-03-01T00:28:12;-9540.34;;;4.58;100.00
9460;BME280;4768;42.664;23.240;2023-03-01T00:30:39;-9539.63;;;4.55;100.00
9460;BME280;4768;42.664;23.240;2023-03-01T00:33:07;-9540.06;;;4.57;100.00
9460;BME280;4768;42.664;23.240;2023-03-01T00:35:34;-9539.50;;;4.55;100.00
9460;BME280;4768;42.664;23.240;2023-03-01T00:38:02;-9538.66;;;4.52;100.00
9460;BME280;4768;42.664;23.240;2023-03-01T00:40:31;-9538.78;;;4.52;100.00
9460;BME280;4768;42.664;23.240;2023-03-01T00:42:59;-9539.34;;;4.54;100.00
9460;BME280;4768;42.664;23.240;2023-03-01T00:45:26;-9538.38;;;4.51;100.00
9460;BME280;4768;42.664;23.240;2023-03-01T00:47:53;-9539.22;;;4.54;100.00
9460;BME280;4768;42.664;23.240;2023-03-01T00:50:22;-9539.06;;;4.53;100.00
9460;BME280;4768;42.664;23.240;2023-03-01T00:52:52;-9537.38;;;4.47;100.00
9460;BME280;4768;42.664;23.240;2023-03-01T00:55:19;-9537.66;;;4.48;100.00
9460;BME280;4768;42.664;23.240;2023-03-01T00:57:46;-9537.09;;;4.46;100.00
9460;BME280;4768;42.664;23.240;2023-03-01T01:00:13;-9538.22;;;4.50;100.00
9460;BME280;4768;42.664;23.240;2023-03-01T01:02:40;-9538.38;;;4.51;100.00
9460;BME280;4768;42.664;23.240;2023-03-01T01:05:07;-9539.22;;;4.54;100.00
9460;BME280;4768;42.664;23.240;2023-03-01T01:07:36;-9537.66;;;4.48;100.00
9460;BME280;4768;42.664;23.240;2023-03-01T01:10:04;-9538.09;;;4.50;100.00
9460;BME280;4768;42.664;23.240;2023-03-01T01:12:32;-9536.53;;;4.44;100.00
9460;BME280;4768;42.664;23.240;2023-03-01T01:14:59;-9537.22;;;4.47;100.00
9460;BME280;4768;42.664;23.240;2023-03-01T01:17:25;-9535.81;;;4.42;100.00
9460;BME280;4768;42.664;23.240;2023-03-01T01:19:52;-9536.66;;;4.45;100.00
9460;BME280;4768;42.664;23.240;2023-03-01T01:22:19;-9536.81;;;4.45;100.00
9460;BME280;4768;42.664;23.240;2023-03-01T01:24:47;-9536.53;;;4.44;100.00
9460;BME280;4768;42.664;23.240;2023-03-01T01:27:14;-9536.25;;;4.43;100.00
9460;BME280;4768;42.664;23.240;2023-03-01T01:29:40;-9536.53;;;4.44;100.00
9460;BME280;4768;42.664;23.240;2023-03-01T01:32:08;-9536.66;;;4.45;100.00
9460;BME280;4768;42.664;23.240;2023-03-01T01:34:35;-9536.09;;;4.43;100.00
9460;BME280;4768;42.664;23.240;2023-03-01T01:37:01;-9535.97;;;4.42;100.00
9460;BME280;4768;42.664;23.240;2023-03-01T01:39:29;-9536.25;;;4.43;100.00
9460;BME280;4768;42.664;23.240;2023-03-01T01:41:57;-9534.84;;;4.38;100.00
9460;BME280;4768;42.664;23.240;2023-03-01T01:44:25;-9535.13;;;4.39;100.00
9460;BME280;4768;42.664;23.240;2023-03-01T01:46:54;-9535.69;;;4.41;100.00
9460;BME280;4768;42.664;23.240;2023-03-01T01:49:27;-9536.25;;;4.43;100.00
9460;BME280;4768;42.664;23.240;2023-03-01T01:52:00;-9535.69;;;4.41;100.00
9460;BME280;4768;42.664;23.240;2023-03-01T01:54:33;-9536.66;;;4.45;100.00
9460;BME280;4768;42.664;23.240;2023-03-01T01:57:07;-9536.66;;;4.45;100.00
9460;BME280;4768;42.664;23.240;2023-03-01T01:59:36;-9536.38;;;4.44;100.00
9460;BME280;4768;42.664;23.240;2023-03-01T02:02:04;-9535.13;;;4.39;100.00
9460;BME280;4768;42.664;23.240;2023-03-01T02:04:32;-9534.84;;;4.38;100.00
9460;BME280;4768;42.664;23.240;2023-03-01T02:07:06;-9535.13;;;4.39;100.00
9460;BME280;4768;42.664;23.240;2023-03-01T02:09:34;-9534.41;;;4.37;100.00
9460;BME280;4768;42.664;23.240;2023-03-01T02:12:04;-9534.13;;;4.36;100.00
9460;BME280;4768;42.664;23.240;2023-03-01T02:14:32;-9534.53;;;4.37;100.00
9460;BME280;4768;42.664;23.240;2023-03-01T02:16:59;-9534.69;;;4.38;100.00
9460;BME280;4768;42.664;23.240;2023-03-01T02:19:39;-9533.97;;;4.35;100.00
9460;BME280;4768;42.664;23.240;2023-03-01T02:22:16;-9534.25;;;4.36;100.00
9460;BME280;4768;42.664;23.240;2023-03-01T02:24:52;-9533.97;;;4.35;100.00
9460;BME280;4768;42.664;23.240;2023-03-01T02:27:28;-9534.84;;;4.38;100.00
9460;BME280;4768;42.664;23.240;2023-03-01T02:30:00;-9534.53;;;4.37;100.00
9460;BME280;4768;42.664;23.240;2023-03-01T02:32:27;-9533.56;;;4.34;100.00
9460;BME280;4768;42.664;23.240;2023-03-01T02:34:54;-9533.13;;;4.32;100.00
9460;BME280;4768;42.664;23.240;2023-03-01T02:37:22;-9532.72;;;4.31;100.00
9460;BME280;4768;42.664;23.240;2023-03-01T02:39:55;-9533.00;;;4.32;100.00
9460;BME280;4768;42.664;23.240;2023-03-01T02:42:28;-9533.13;;;4.32;100.00
9460;BME280;4768;42.664;23.240;2023-03-01T02:44:57;-9532.84;;;4.31;100.00
9460;BME280;4768;42.664;23.240;2023-03-01T02:47:25;-9532.44;;;4.30;100.00
9460;BME280;4768;42.664;23.240;2023-03-01T02:49:52;-9532.44;;;4.30;100.00
9460;BME280;4768;42.664;23.240;2023-03-01T02:52:30;-9532.44;;;4.30;100.00
9460;BME280;4768;42.664;23.240;2023-03-01T02:55:02;-9531.44;;;4.27;100.00
9460;BME280;4768;42.664;23.240;2023-03-01T02:57:33;-9530.88;;;4.25;100.00
9460;BME280;4768;42.664;23.240;2023-03-01T03:00:03;-9531.00;;;4.25;100.00
9460;BME280;4768;42.664;23.240;2023-03-01T03:02:35;-9530.31;;;4.23;100.00
9460;BME280;4768;42.664;23.240;2023-03-01T03:05:08;-9531.56;;;4.27;100.00
9460;BME280;4768;42.664;23.240;2023-03-01T03:07:37;-9530.31;;;4.23;100.00
9460;BME280;4768;42.664;23.240;2023-03-01T03:10:06;-9529.75;;;4.21;100.00
9460;BME280;4768;42.664;23.240;2023-03-01T03:12:33;-9529.19;;;4.19;100.00
9460;BME280;4768;42.664;23.240;2023-03-01T03:15:00;-9528.34;;;4.16;100.00
9460;BME280;4768;42.664;23.240;2023-03-01T03:17:27;-9527.06;;;4.11;100.00
9460;BME280;4768;42.664;23.240;2023-03-01T03:19:55;-9527.91;;;4.14;100.00
9460;BME280;4768;42.664;23.240;2023-03-01T03:22:21;-9525.94;;;4.07;100.00
9460;BME280;4768;42.664;23.240;2023-03-01T03:24:48;-9525.66;;;4.06;100.00
9460;BME280;4768;42.664;23.240;2023-03-01T03:27:15;-9525.22;;;4.05;100.00
9460;BME280;4768;42.664;23.240;2023-03-01T03:29:42;-9524.94;;;4.04;100.00
9460;BME280;4768;42.664;23.240;2023-03-01T03:32:08;-9524.94;;;4.04;100.00
9460;BME280;4768;42.664;23.240;2023-03-01T03:34:35;-9524.94;;;4.04;100.00
9460;BME280;4768;42.664;23.240;2023-03-01T03:37:03;-9525.09;;;4.04;100.00
9460;BME280;4768;42.664;23.240;2023-03-01T03:39:50;-9524.66;;;4.03;100.00
9460;BME280;4768;42.664;23.240;2023-03-01T03:42:20;-9525.09;;;4.04;100.00
9460;BME280;4768;42.664;23.240;2023-03-01T03:44:47;-9523.94;;;4.00;100.00
9460;BME280;4768;42.664;23.240;2023-03-01T03:47:31;-9524.09;;;4.01;100.00
9460;BME280;4768;42.664;23.240;2023-03-01T03:50:16;-9524.22;;;4.01;100.00
9460;BME280;4768;42.664;23.240;2023-03-01T03:52:45;-9524.94;;;4.04;100.00
9460;BME280;4768;42.664;23.240;2023-03-01T03:55:12;-9525.22;;;4.05;100.00
9460;BME280;4768;42.664;23.240;2023-03-01T03:57:40;-9524.94;;;4.04;100.00
9460;BME280;4768;42.664;23.240;2023-03-01T04:00:10;-9525.09;;;4.04;100.00
9460;BME280;4768;42.664;23.240;2023-03-01T04:02:54;-9525.66;;;4.06;100.00
9460;BME280;4768;42.664;23.240;2023-03-01T04:05:22;-9526.06;;;4.08;100.00
9460;BME280;4768;42.664;23.240;2023-03-01T04:07:50;-9525.38;;;4.05;100.00
9460;BME280;4768;42.664;23.240;2023-03-01T04:10:27;-9526.06;;;4.08;100.00
9460;BME280;4768;42.664;23.240;2023-03-01T04:12:54;-9525.78;;;4.07;100.00
9460;BME280;4768;42.664;23.240;2023-03-01T04:15:22;-9525.38;;;4.05;100.00
9460;BME280;4768;42.664;23.240;2023-03-01T04:17:50;-9526.22;;;4.08;100.00
9460;BME280;4768;42.664;23.240;2023-03-01T04:20:20;-9524.22;;;4.01;100.00
9460;BME280;4768;42.664;23.240;2023-03-01T04:22:52;-9522.97;;;3.97;100.00
9460;BME280;4768;42.664;23.240;2023-03-01T04:25:23;-9523.09;;;3.97;100.00
9460;BME280;4768;42.664;23.240;2023-03-01T04:27:50;-9520.97;;;3.90;100.00
9460;BME280;4768;42.664;23.240;2023-03-01T04:30:17;-9519.72;;;3.85;100.00
9460;BME280;4768;42.664;23.240;2023-03-01T04:32:43;-9519.44;;;3.84;100.00
9460;BME280;4768;42.664;23.240;2023-03-01T04:35:10;-9519.28;;;3.84;100.00
9460;BME280;4768;42.664;23.240;2023-03-01T04:37:38;-9518.59;;;3.82;100.00
9460;BME280;4768;42.664;23.240;2023-03-01T04:40:10;-9518.72;;;3.82;100.00
9460;BME280;4768;42.664;23.240;2023-03-01T04:42:41;-9519.00;;;3.83;100.00
9460;BME280;4768;42.664;23.240;2023-03-01T04:45:09;-9519.16;;;3.83;100.00
9460;BME280;4768;42.664;23.240;2023-03-01T04:47:39;-9519.44;;;3.84;100.00
9460;BME280;4768;42.664;23.240;2023-03-01T04:50:07;-9518.59;;;3.82;100.00
9460;BME280;4768;42.664;23.240;2023-03-01T04:52:34;-9519.00;;;3.83;100.00
9460;BME280;4768;42.664;23.240;2023-03-01T04:55:01;-9520.00;;;3.86;100.00
9460;BME280;4768;42.664;23.240;2023-03-01T04:57:31;-9520.84;;;3.89;100.00
9460;BME280;4768;42.664;23.240;2023-03-01T04:59:58;-9520.72;;;3.89;100.00
9460;BME280;4768;42.664;23.240;2023-03-01T05:02:25;-9521.84;;;3.93;100.00
9460;BME280;4768;42.664;23.240;2023-03-01T05:04:51;-9521.69;;;3.92;100.00
9460;BME280;4768;42.664;23.240;2023-03-01T05:07:22;-9521.56;;;3.92;100.00
9460;BME280;4768;42.664;23.240;2023-03-01T05:09:50;-9522.69;;;3.96;100.00
9460;BME280;4768;42.664;23.240;2023-03-01T05:12:16;-9523.66;;;3.99;100.00
9460;BME280;4768;42.664;23.240;2023-03-01T05:14:44;-9524.78;;;4.03;100.00
9460;BME280;4768;42.664;23.240;2023-03-01T05:17:11;-9524.66;;;4.03;100.00
9460;BME280;4768;42.664;23.240;2023-03-01T05:19:38;-9524.78;;;4.03;100.00
9460;BME280;4768;42.664;23.240;2023-03-01T05:22:07;-9524.22;;;4.01;100.00
9460;BME280;4768;42.664;23.240;2023-03-01T05:24:35;-9523.94;;;4.00;100.00
9460;BME280;4768;42.664;23.240;2023-03-01T05:27:04;-9523.66;;;3.99;100.00
9460;BME280;4768;42.664;23.240;2023-03-01T05:29:31;-9524.66;;;4.03;100.00
9460;BME280;4768;42.664;23.240;2023-03-01T05:32:02;-9523.94;;;4.00;100.00
9460;BME280;4768;42.664;23.240;2023-03-01T05:34:31;-9524.09;;;4.01;100.00
9460;BME280;4768;42.664;23.240;2023-03-01T05:36:59;-9523.38;;;3.98;100.00
9460;BME280;4768;42.664;23.240;2023-03-01T05:39:27;-9523.94;;;4.00;100.00
9460;BME280;4768;42.664;23.240;2023-03-01T05:41:55;-9525.66;;;4.06;100.00
9460;BME280;4768;42.664;23.240;2023-03-01T05:44:22;-9525.94;;;4.07;100.00
9460;BME280;4768;42.664;23.240;2023-03-01T05:46:50;-9526.34;;;4.09;100.00
9460;BME280;4768;42.664;23.240;2023-03-01T05:49:18;-9526.50;;;4.09;100.00
9460;BME280;4768;42.664;23.240;2023-03-01T05:51:48;-9527.19;;;4.12;100.00
9460;BME280;4768;42.664;23.240;2023-03-01T05:54:15;-9528.06;;;4.15;100.00
9460;BME280;4768;42.664;23.240;2023-03-01T05:56:42;-9528.63;;;4.17;100.00
9460;BME280;4768;42.664;23.240;2023-03-01T05:59:09;-9528.47;;;4.16;100.00
9460;BME280;4768;42.664;23.240;2023-03-01T06:01:36;-9529.88;;;4.21;100.00
9460;BME280;4768;42.664;23.240;2023-03-01T06:04:03;-9529.75;;;4.21;100.00
9460;BME280;4768;42.664;23.240;2023-03-01T06:06:33;-9530.31;;;4.23;100.00
9460;BME280;4768;42.664;23.240;2023-03-01T06:09:00;-9529.88;;;4.21;100.00
9460;BME280;4768;42.664;23.240;2023-03-01T06:11:27;-9529.88;;;4.21;100.00
9460;BME280;4768;42.664;23.240;2023-03-01T06:13:53;-9529.47;;;4.20;100.00
9460;BME280;4768;42.664;23.240;2023-03-01T06:16:20;-9531.16;;;4.26;100.00
9460;BME280;4768;42.664;23.240;2023-03-01T06:18:47;-9530.31;;;4.23;100.00
9460;BME280;4768;42.664;23.240;2023-03-01T06:21:13;-9530.72;;;4.24;100.00
9460;BME280;4768;42.664;23.240;2023-03-01T06:23:41;-9530.88;;;4.25;100.00
9460;BME280;4768;42.664;23.240;2023-03-01T06:26:08;-9532.56;;;4.31;100.00
9460;BME280;4768;42.664;23.240;2023-03-01T06:28:35;-9530.16;;;4.22;100.00
9460;BME280;4768;42.664;23.240;2023-03-01T06:31:02;-9531.56;;;4.27;100.00
9460;BME280;4768;42.664;23.240;2023-03-01T06:33:29;-9531.16;;;4.26;100.00
9460;BME280;4768;42.664;23.240;2023-03-01T06:35:56;-9532.28;;;4.30;100.00
9460;BME280;4768;42.664;23.240;2023-03-01T06:38:23;-9531.16;;;4.26;100.00
9460;BME280;4768;42.664;23.240;2023-03-01T06:40:55;-9530.16;;;4.22;100.00
9460;BME280;4768;42.664;23.240;2023-03-01T06:43:22;-9529.47;;;4.20;100.00
9460;BME280;4768;42.664;23.240;2023-03-01T06:45:49;-9529.19;;;4.19;100.00
9460;BME280;4768;42.664;23.240;2023-03-01T06:48:16;-9530.72;;;4.24;100.00
9460;BME280;4768;42.664;23.240;2023-03-01T06:50:43;-9530.72;;;4.24;100.00
9460;BME280;4768;42.664;23.240;2023-03-01T06:53:10;-9530.88;;;4.25;100.00
9460;BME280;4768;42.664;23.240;2023-03-01T06:55:37;-9529.47;;;4.20;100.00
9460;BME280;4768;42.664;23.240;2023-03-01T06:58:05;-9532.56;;;4.31;100.00
9460;BME280;4768;42.664;23.240;2023-03-01T07:00:32;-9531.00;;;4.25;100.00
9460;BME280;4768;42.664;23.240;2023-03-01T07:03:00;-9530.59;;;4.24;100.00
9460;BME280;4768;42.664;23.240;2023-03-01T07:05:27;-9533.69;;;4.34;100.00
9460;BME280;4768;42.664;23.240;2023-03-01T07:07:54;-9534.41;;;4.37;100.00
9460;BME280;4768;42.664;23.240;2023-03-01T07:10:21;-9533.41;;;4.33;100.00
9460;BME280;4768;42.664;23.240;2023-03-01T07:12:48;-9536.53;;;4.44;100.00
9460;BME280;4768;42.664;23.240;2023-03-01T07:15:16;-9535.81;;;4.42;100.00
9460;BME280;4768;42.664;23.240;2023-03-01T07:17:43;-9538.38;;;4.51;100.00
9460;BME280;4768;42.664;23.240;2023-03-01T07:20:13;-9540.47;;;4.58;100.00
9460;BME280;4768;42.664;23.240;2023-03-01T07:22:40;-9540.34;;;4.58;100.00
9460;BME280;4768;42.664;23.240;2023-03-01T07:25:08;-9539.63;;;4.55;100.00
9460;BME280;4768;42.664;23.240;2023-03-01T07:27:35;-9540.63;;;4.59;100.00
9460;BME280;4768;42.664;23.240;2023-03-01T07:30:03;-9542.59;;;4.66;100.00
9460;BME280;4768;42.664;23.240;2023-03-01T07:32:31;-9537.78;;;4.49;100.00
9460;BME280;4768;42.664;23.240;2023-03-01T07:34:58;-9539.34;;;4.54;100.00
9460;BME280;4768;42.664;23.240;2023-03-01T07:37:24;-9543.03;;;4.67;100.00
9460;BME280;4768;42.664;23.240;2023-03-01T07:39:51;-9543.16;;;4.68;100.00
9460;BME280;4768;42.664;23.240;2023-03-01T07:42:18;-9544.00;;;4.71;100.00
9460;BME280;4768;42.664;23.240;2023-03-01T07:44:44;-9545.16;;;4.75;100.00
9460;BME280;4768;42.664;23.240;2023-03-01T07:47:11;-9543.88;;;4.70;100.00
9460;BME280;4768;42.664;23.240;2023-03-01T07:49:39;-9549.38;;;4.89;100.00
9460;BME280;4768;42.664;23.240;2023-03-01T07:52:06;-9545.00;;;4.74;100.00
9460;BME280;4768;42.664;23.240;2023-03-01T07:54:33;-9545.28;;;4.75;100.00
9460;BME280;4768;42.664;23.240;2023-03-01T07:57:00;-9542.59;;;4.66;100.00
9460;BME280;4768;42.664;23.240;2023-03-01T07:59:27;-9543.72;;;4.70;100.00
9460;BME280;4768;42.664;23.240;2023-03-01T08:01:55;-9546.28;;;4.78;100.00
9460;BME280;4768;42.664;23.240;2023-03-01T08:04:22;-9548.97;;;4.88;100.00
9460;BME280;4768;42.664;23.240;2023-03-01T08:06:51;-9545.72;;;4.77;100.00
9460;BME280;4768;42.664;23.240;2023-03-01T08:09:18;-9549.81;;;4.91;100.00
9460;BME280;4768;42.664;23.240;2023-03-01T08:11:45;-9550.09;;;4.92;100.00
9460;BME280;4768;42.664;23.240;2023-03-01T08:14:12;-9551.66;;;4.97;100.00
9460;BME280;4768;42.664;23.240;2023-03-01T08:16:39;-9548.25;;;4.85;100.00
9460;BME280;4768;42.664;23.240;2023-03-01T08:19:06;-9547.41;;;4.82;100.00
9460;BME280;4768;42.664;23.240;2023-03-01T08:21:33;-9551.22;;;4.96;100.00
9460;BME280;4768;42.664;23.240;2023-03-01T08:24:02;-9548.41;;;4.86;100.00
9460;BME280;4768;42.664;23.240;2023-03-01T08:26:29;-9544.88;;;4.74;100.00
9460;BME280;4768;42.664;23.240;2023-03-01T08:28:56;-9544.16;;;4.71;100.00
9460;BME280;4768;42.664;23.240;2023-03-01T08:31:25;-9544.72;;;4.73;100.00
9460;BME280;4768;42.664;23.240;2023-03-01T08:33:54;-9546.13;;;4.78;100.00
9460;BME280;4768;42.664;23.240;2023-03-01T08:36:22;-9545.72;;;4.77;100.00
9460;BME280;4768;42.664;23.240;2023-03-01T08:38:48;-9548.81;;;4.87;100.00
9460;BME280;4768;42.664;23.240;2023-03-01T08:41:17;-9553.22;;;5.03;100.00
9460;BME280;4768;42.664;23.240;2023-03-01T08:43:44;-9553.47;;;5.04;100.00
9460;BME280;4768;42.664;23.240;2023-03-01T08:46:11;-9553.06;;;5.02;100.00
9460;BME280;4768;42.664;23.240;2023-03-01T08:48:38;-9558.16;;;5.20;100.00
9460;BME280;4768;42.664;23.240;2023-03-01T08:51:09;-9554.47;;;5.07;100.00
9460;BME280;4768;42.664;23.240;2023-03-01T08:53:36;-9551.78;;;4.98;100.00
9460;BME280;4768;42.664;23.240;2023-03-01T08:56:04;-9557.03;;;5.16;100.00
9460;BME280;4768;42.664;23.240;2023-03-01T08:58:32;-9555.31;;;5.10;100.00
9460;BME280;4768;42.664;23.240;2023-03-01T09:00:59;-9557.88;;;5.19;100.00
9460;BME280;4768;42.664;23.240;2023-03-01T09:03:27;-9559.84;;;5.26;100.00
9460;BME280;4768;42.664;23.240;2023-03-01T09:05:59;-9562.25;;;5.34;100.00
9460;BME280;4768;42.664;23.240;2023-03-01T09:08:26;-9563.09;;;5.37;100.00
9460;BME280;4768;42.664;23.240;2023-03-01T09:10:53;-9557.88;;;5.19;100.00
9460;BME280;4768;42.664;23.240;2023-03-01T09:13:20;-9565.38;;;5.45;100.00
9460;BME280;4768;42.664;23.240;2023-03-01T09:15:50;-9562.25;;;5.34;100.00
9460;BME280;4768;42.664;23.240;2023-03-01T09:18:17;-9565.78;;;5.47;100.00
9460;BME280;4768;42.664;23.240;2023-03-01T09:20:44;-9564.38;;;5.42;100.00
9460;BME280;4768;42.664;23.240;2023-03-01T09:23:10;-9564.09;;;5.41;100.00
9460;BME280;4768;42.664;23.240;2023-03-01T09:25:37;-9560.00;;;5.27;100.00
9460;BME280;4768;42.664;23.240;2023-03-01T09:28:04;-9563.94;;;5.40;100.00
9460;BME280;4768;42.664;23.240;2023-03-01T09:30:31;-9562.97;;;5.37;100.00
9460;BME280;4768;42.664;23.240;2023-03-01T09:32:59;-9558.72;;;5.22;100.00
9460;BME280;4768;42.664;23.240;2023-03-01T09:35:26;-9561.41;;;5.31;100.00
9460;BME280;4768;42.664;23.240;2023-03-01T09:37:53;-9570.47;;;5.63;100.00
9460;BME280;4768;42.664;23.240;2023-03-01T09:40:21;-9569.59;;;5.60;100.00
9460;BME280;4768;42.664;23.240;2023-03-01T09:42:53;-9572.72;;;5.71;100.00
9460;BME280;4768;42.664;23.240;2023-03-01T09:45:33;-9563.81;;;5.40;100.00
9460;BME280;4768;42.664;23.240;2023-03-01T09:48:05;-9567.91;;;5.54;100.00
9460;BME280;4768;42.664;23.240;2023-03-01T09:50:39;-9567.06;;;5.51;100.00
9460;BME280;4768;42.664;23.240;2023-03-01T09:53:13;-9570.59;;;5.64;100.00
9460;BME280;4768;42.664;23.240;2023-03-01T09:55:44;-9568.06;;;5.55;100.00
9460;BME280;4768;42.664;23.240;2023-03-01T09:58:46;-9570.59;;;5.64;100.00
9460;BME280;4768;42.664;23.240;2023-03-01T10:01:29;-9570.88;;;5.65;100.00
9460;BME280;4768;42.664;23.240;2023-03-01T10:07:01;-9567.34;;;5.52;100.00
9460;BME280;4768;42.664;23.240;2023-03-01T10:09:33;-9565.09;;;5.44;100.00
9460;BME280;4768;42.664;23.240;2023-03-01T10:12:02;-9565.66;;;5.46;100.00
9460;BME280;4768;42.664;23.240;2023-03-01T10:14:35;-9572.16;;;5.69;100.00
9460;BME280;4768;42.664;23.240;2023-03-01T10:17:08;-9577.97;;;5.89;100.00
9460;BME280;4768;42.664;23.240;2023-03-01T10:19:40;-9574.13;;;5.76;100.00
9460;BME280;4768;42.664;23.240;2023-03-01T10:22:15;-9576.97;;;5.86;100.00
9460;BME280;4768;42.664;23.240;2023-03-01T10:24:43;-9563.09;;;5.37;100.00
9460;BME280;4768;42.664;23.240;2023-03-01T10:27:17;-9566.63;;;5.50;100.00
9460;BME280;4768;42.664;23.240;2023-03-01T10:29:50;-9567.06;;;5.51;100.00
9460;BME280;4768;42.664;23.240;2023-03-01T10:32:18;-9562.81;;;5.36;100.00
9460;BME280;4768;42.664;23.240;2023-03-01T10:34:48;-9565.38;;;5.45;100.00
9460;BME280;4768;42.664;23.240;2023-03-01T10:37:17;-9571.88;;;5.68;100.00
9460;BME280;4768;42.664;23.240;2023-03-01T10:39:57;-9568.47;;;5.56;100.00
9460;BME280;4768;42.664;23.240;2023-03-01T10:42:29;-9571.88;;;5.68;100.00
9460;BME280;4768;42.664;23.240;2023-03-01T10:44:58;-9574.00;;;5.76;100.00
9460;BME280;4768;42.664;23.240;2023-03-01T10:47:26;-9570.03;;;5.62;100.00
9460;BME280;4768;42.664;23.240;2023-03-01T10:49:57;-9566.22;;;5.48;100.00
9460;BME280;4768;42.664;23.240;2023-03-01T10:52:35;-9567.63;;;5.53;100.00
9460;BME280;4768;42.664;23.240;2023-03-01T10:55:23;-9568.63;;;5.57;100.00
9460;BME280;4768;42.664;23.240;2023-03-01T10:58:06;-9567.50;;;5.53;100.00
9460;BME280;4768;42.664;23.240;2023-03-01T11:00:45;-9568.91;;;5.58;100.00
9460;BME280;4768;42.664;23.240;2023-03-01T11:03:18;-9569.19;;;5.59;100.00
9460;BME280;4768;42.664;23.240;2023-03-01T11:06:19;-9576.25;;;5.83;100.00
9460;BME280;4768;42.664;23.240;2023-03-01T11:08:48;-9572.56;;;5.71;100.00
9460;BME280;4768;42.664;23.240;2023-03-01T11:11:22;-9569.31;;;5.59;100.00
9460;BME280;4768;42.664;23.240;2023-03-01T11:13:56;-9570.16;;;5.62;100.00
9460;BME280;4768;42.664;23.240;2023-03-01T11:16:30;-9568.75;;;5.57;100.00
9460;BME280;4768;42.664;23.240;2023-03-01T11:19:00;-9569.59;;;5.60;100.00
9460;BME280;4768;42.664;23.240;2023-03-01T11:21:32;-9575.56;;;5.81;100.00
9460;BME280;4768;42.664;23.240;2023-03-01T11:24:01;-9572.44;;;5.70;100.00
9460;BME280;4768;42.664;23.240;2023-03-01T11:26:31;-9573.72;;;5.75;100.00
9460;BME280;4768;42.664;23.240;2023-03-01T11:29:06;-9574.00;;;5.76;100.00
9460;BME280;4768;42.664;23.240;2023-03-01T11:31:39;-9573.16;;;5.73;100.00
9460;BME280;4768;42.664;23.240;2023-03-01T11:34:11;-9578.09;;;5.90;100.00
9460;BME280;4768;42.664;23.240;2023-03-01T11:36:45;-9576.81;;;5.85;100.00
9460;BME280;4768;42.664;23.240;2023-03-01T11:39:20;-9577.25;;;5.87;100.00
9460;BME280;4768;42.664;23.240;2023-03-01T11:42:00;-9574.84;;;5.78;100.00
9460;BME280;4768;42.664;23.240;2023-03-01T11:44:30;-9574.56;;;5.78;100.00
9460;BME280;4768;42.664;23.240;2023-03-01T11:47:24;-9580.09;;;5.97;100.00
9460;BME280;4768;42.664;23.240;2023-03-01T11:50:16;-9580.94;;;6.00;100.00
9460;BME280;4768;42.664;23.240;2023-03-01T11:52:58;-9575.69;;;5.81;100.00
9460;BME280;4768;42.664;23.240;2023-03-01T11:55:47;-9578.53;;;5.91;100.00
9460;BME280;4768;42.664;23.240;2023-03-01T12:01:28;-9575.00;;;5.79;100.00
9460;BME280;4768;42.664;23.240;2023-03-01T12:04:15;-9578.25;;;5.90;100.00
9460;BME280;4768;42.664;23.240;2023-03-01T12:06:52;-9582.63;;;6.06;100.00
9460;BME280;4768;42.664;23.240;2023-03-01T12:09:32;-9583.34;;;6.08;100.00
9460;BME280;4768;42.664;23.240;2023-03-01T12:12:18;-9585.44;;;6.16;100.00
9460;BME280;4768;42.664;23.240;2023-03-01T12:14:55;-9578.09;;;5.90;100.00
9460;BME280;4768;42.664;23.240;2023-03-01T12:17:40;-9583.19;;;6.08;100.00
9460;BME280;4768;42.664;23.240;2023-03-01T12:20:25;-9587.00;;;6.21;100.00
9460;BME280;4768;42.664;23.240;2023-03-01T12:23:09;-9589.13;;;6.28;100.00
9460;BME280;4768;42.664;23.240;2023-03-01T12:25:47;-9595.66;;;6.51;100.00
9460;BME280;4768;42.664;23.240;2023-03-01T12:28:36;-9589.69;;;6.30;100.00
9460;BME280;4768;42.664;23.240;2023-03-01T12:34:35;-9597.34;;;6.57;100.00
9460;BME280;4768;42.664;23.240;2023-03-01T12:37:17;-9595.94;;;6.52;100.00
9460;BME280;4768;42.664;23.240;2023-03-01T12:39:57;-9599.59;;;6.65;100.00
9460;BME280;4768;42.664;23.240;2023-03-01T12:42:37;-9598.47;;;6.61;100.00
9460;BME280;4768;42.664;23.240;2023-03-01T12:45:25;-9600.31;;;6.68;100.00
9460;BME280;4768;42.664;23.240;2023-03-01T12:48:09;-9601.16;;;6.71;100.00
9460;BME280;4768;42.664;23.240;2023-03-01T12:50:43;-9597.91;;;6.59;100.00
9460;BME280;4768;42.664;23.240;2023-03-01T12:53:22;-9607.97;;;6.94;100.00
9460;BME280;4768;42.664;23.240;2023-03-01T12:55:50;-9610.09;;;7.02;100.00
9460;BME280;4768;42.664;23.240;2023-03-01T12:58:26;-9612.91;;;7.12;100.00
9460;BME280;4768;42.664;23.240;2023-03-01T13:01:05;-9609.53;;;7.00;100.00
9460;BME280;4768;42.664;23.240;2023-03-01T13:03:53;-9619.44;;;7.34;100.00
9460;BME280;4768;42.664;23.240;2023-03-01T13:06:32;-9611.06;;;7.05;100.00
9460;BME280;4768;42.664;23.240;2023-03-01T13:09:07;-9604.13;;;6.81;100.00
9460;BME280;4768;42.664;23.240;2023-03-01T13:11:35;-9613.47;;;7.14;100.00
9460;BME280;4768;42.664;23.240;2023-03-01T13:14:37;-9617.31;;;7.27;100.00
9460;BME280;4768;42.664;23.240;2023-03-01T13:17:32;-9605.13;;;6.84;100.00
9460;BME280;4768;42.664;23.240;2023-03-01T13:19:59;-9599.91;;;6.66;100.00
9460;BME280;4768;42.664;23.240;2023-03-01T13:22:29;-9598.34;;;6.61;100.00
9460;BME280;4768;42.664;23.240;2023-03-01T13:25:13;-9604.56;;;6.82;100.00
9460;BME280;4768;42.664;23.240;2023-03-01T13:27:41;-9596.63;;;6.55;100.00
9460;BME280;4768;42.664;23.240;2023-03-01T13:30:40;-9603.00;;;6.77;100.00
9460;BME280;4768;42.664;23.240;2023-03-01T13:33:44;-9599.03;;;6.63;100.00
9460;BME280;4768;42.664;23.240;2023-03-01T13:39:30;-9595.94;;;6.52;100.00
9460;BME280;4768;42.664;23.240;2023-03-01T13:42:01;-9595.22;;;6.50;100.00